Wetterstation Vordersexau
Wetterdaten: Woche 16.12.13 - 22.12.13 (KW51)
Datum Zeit Temp. A. Feuchte A. Luftdruck Regen Wind Richtung Taupunkt Windchill Windben
16.12.2013 00:00 -2,2 C 85 % 1029,1 hPa 0,0 l/m 0,0 km/h NO -4,4 C -2,2 C 0,0 km/h
16.12.2013 01:00 -2,4 C 85 % 1029,0 hPa 0,0 l/m 0,0 km/h NO -4,6 C -2,4 C 0,0 km/h
16.12.2013 02:00 -2,7 C 85 % 1029,0 hPa 0,0 l/m 0,0 km/h NO -4,9 C -2,7 C 0,0 km/h
16.12.2013 03:00 -2,9 C 84 % 1028,4 hPa 0,0 l/m 0,0 km/h NO -5,2 C -2,9 C 0,0 km/h
16.12.2013 04:00 -3,1 C 84 % 1028,2 hPa 0,0 l/m 0,0 km/h NO -5,4 C -3,1 C 0,0 km/h
16.12.2013 05:00 -3,4 C 84 % 1028,2 hPa 0,0 l/m 0,0 km/h NO -5,7 C -3,4 C 0,0 km/h
16.12.2013 06:00 -3,4 C 84 % 1027,9 hPa 0,0 l/m 0,0 km/h NO -5,7 C -3,4 C 0,0 km/h
16.12.2013 07:00 -3,2 C 84 % 1028,0 hPa 0,0 l/m 0,0 km/h NO -5,5 C -3,2 C 0,0 km/h
16.12.2013 08:00 -3,1 C 84 % 1027,8 hPa 0,0 l/m 0,0 km/h NO -5,4 C -3,1 C 0,0 km/h
16.12.2013 09:00 0,9 C 76 % 1028,0 hPa 0,0 l/m 0,0 km/h NO -2,8 C 0,9 C 0,0 km/h
16.12.2013 10:00 6,1 C 86 % 1028,0 hPa 0,5 l/m 0,0 km/h NO 3,9 C 6,1 C 0,0 km/h
16.12.2013 11:00 10,6 C 74 % 1027,2 hPa 0,0 l/m 0,0 km/h W 6,2 C 10,6 C 0,0 km/h
16.12.2013 12:00 10,5 C 68 % 1026,8 hPa 0,0 l/m 0,0 km/h W-NW 4,8 C 10,5 C 0,0 km/h
16.12.2013 13:00 11,5 C 64 % 1026,6 hPa 0,0 l/m 0,0 km/h W 4,9 C 11,5 C 0,0 km/h
16.12.2013 14:00 12,2 C 60 % 1025,9 hPa 0,0 l/m 0,0 km/h W 4,7 C 12,2 C 0,0 km/h
16.12.2013 15:00 8,4 C 69 % 1026,0 hPa 0,0 l/m 0,0 km/h O 3,0 C 8,4 C 0,0 km/h
16.12.2013 16:00 4,9 C 78 % 1026,1 hPa 0,0 l/m 0,0 km/h O-NO 1,4 C 4,9 C 0,0 km/h
16.12.2013 17:00 4,2 C 83 % 1026,1 hPa 0,0 l/m 0,0 km/h O 1,6 C 4,2 C 0,0 km/h
16.12.2013 18:00 3,8 C 84 % 1026,3 hPa 0,0 l/m 0,0 km/h NO 1,4 C 3,8 C 0,0 km/h
16.12.2013 19:00 3,6 C 82 % 1026,5 hPa 0,0 l/m 0,0 km/h O 0,8 C 3,6 C 0,0 km/h
16.12.2013 20:00 2,9 C 83 % 1026,3 hPa 0,0 l/m 0,0 km/h O-NO 0,3 C 2,9 C 0,0 km/h
16.12.2013 21:00 1,0 C 85 % 1026,4 hPa 0,0 l/m 0,0 km/h O-NO -1,2 C 1,0 C 0,0 km/h
16.12.2013 22:00 0,7 C 86 % 1026,5 hPa 0,0 l/m 0,0 km/h NO -1,4 C 0,7 C 0,0 km/h
16.12.2013 23:00 0,6 C 86 % 1026,1 hPa 0,0 l/m 0,0 km/h N-NO -1,5 C 0,6 C 0,0 km/h
17.12.2013 00:00 0,1 C 86 % 1026,0 hPa 0,0 l/m 0,0 km/h N-NO -2,0 C 0,1 C 0,0 km/h
17.12.2013 01:00 -1,2 C 86 % 1025,7 hPa 0,0 l/m 0,0 km/h N-NO -3,2 C -1,2 C 0,0 km/h
17.12.2013 02:00 -1,1 C 87 % 1025,2 hPa 0,0 l/m 0,0 km/h NO -3,0 C -1,1 C 0,0 km/h
17.12.2013 03:00 -2,0 C 87 % 1025,3 hPa 0,0 l/m 0,0 km/h N-NO -3,9 C -2,0 C 0,0 km/h
17.12.2013 04:00 -1,8 C 87 % 1024,6 hPa 0,0 l/m 0,0 km/h O-NO -3,7 C -1,8 C 0,0 km/h
17.12.2013 05:00 -2,5 C 87 % 1024,6 hPa 0,0 l/m 0,0 km/h N-NO -4,4 C -2,5 C 0,0 km/h
17.12.2013 06:00 -2,1 C 87 % 1024,9 hPa 0,0 l/m 0,0 km/h N-NO -4,0 C -2,1 C 0,0 km/h
17.12.2013 07:00 -2,6 C 86 % 1025,1 hPa 0,0 l/m 0,0 km/h N-NO -4,6 C -2,6 C 0,0 km/h
17.12.2013 08:00 -2,7 C 86 % 1025,7 hPa 0,0 l/m 0,0 km/h NO -4,7 C -2,7 C 0,0 km/h
17.12.2013 09:00 2,4 C 85 % 1025,8 hPa 0,0 l/m 0,0 km/h N-NO 0,1 C 2,4 C 0,0 km/h
17.12.2013 10:00 8,5 C 72 % 1026,0 hPa 0,0 l/m 0,0 km/h N-NO 3,7 C 8,5 C 0,0 km/h
17.12.2013 11:00 11,1 C 63 % 1025,8 hPa 0,0 l/m 0,0 km/h O 4,3 C 11,1 C 0,0 km/h
17.12.2013 12:00 13,8 C 56 % 1025,0 hPa 0,0 l/m 0,0 km/h S-SO 5,2 C 13,8 C 0,0 km/h
17.12.2013 13:00 14,8 C 57 % 1024,2 hPa 0,0 l/m 0,0 km/h SW 6,4 C 14,8 C 0,0 km/h
17.12.2013 14:00 16,5 C 40 % 1023,6 hPa 0,0 l/m 24,6 km/h NW 2,9 C 10,7 C 13,7 km/h
17.12.2013 15:00 15,9 C 43 % 1023,4 hPa 0,0 l/m 0,0 km/h NO 3,3 C 15,9 C 0,0 km/h
17.12.2013 16:00 13,5 C 47 % 1023,5 hPa 0,0 l/m 0,0 km/h NO 2,4 C 13,5 C 0,0 km/h
17.12.2013 17:00 4,8 C 67 % 1023,3 hPa 0,0 l/m 0,0 km/h O-SO -0,8 C 4,8 C 0,0 km/h
17.12.2013 18:00 2,7 C 73 % 1023,6 hPa 0,0 l/m 0,0 km/h O-NO -1,6 C 2,7 C 0,0 km/h
17.12.2013 19:00 2,3 C 76 % 1023,3 hPa 0,0 l/m 0,0 km/h O-SO -1,5 C 2,3 C 0,0 km/h
17.12.2013 20:00 2,7 C 75 % 1023,2 hPa 0,0 l/m 1,3 km/h O-SO -1,3 C 2,7 C 0,7 km/h
17.12.2013 21:00 2,4 C 76 % 1023,4 hPa 0,0 l/m 0,0 km/h O -1,4 C 2,4 C 0,0 km/h
17.12.2013 22:00 1,8 C 76 % 1023,5 hPa 0,0 l/m 0,0 km/h NO -2,0 C 1,8 C 0,0 km/h
17.12.2013 23:00 -0,1 C 81 % 1023,6 hPa 0,0 l/m 0,0 km/h NO -3,0 C -0,1 C 0,0 km/h
18.12.2013 00:00 -0,9 C 83 % 1023,6 hPa 0,0 l/m 0,0 km/h NO -3,4 C -0,9 C 0,0 km/h
18.12.2013 01:00 -1,0 C 84 % 1023,3 hPa 0,0 l/m 0,0 km/h NO -3,4 C -1,0 C 0,0 km/h
18.12.2013 02:00 -0,6 C 85 % 1023,1 hPa 0,0 l/m 0,0 km/h O-SO -2,8 C -0,6 C 0,0 km/h
18.12.2013 03:00 1,3 C 84 % 1022,8 hPa 0,0 l/m 0,0 km/h O-SO -1,1 C 1,3 C 0,0 km/h
18.12.2013 04:00 2,3 C 81 % 1022,8 hPa 0,0 l/m 0,0 km/h NO -0,6 C 2,3 C 0,0 km/h
18.12.2013 05:00 2,4 C 81 % 1022,6 hPa 0,0 l/m 0,0 km/h N-NO -0,5 C 2,4 C 0,0 km/h
18.12.2013 06:00 2,5 C 81 % 1022,8 hPa 0,0 l/m 0,0 km/h O-SO -0,4 C 2,5 C 0,0 km/h
18.12.2013 07:00 2,1 C 82 % 1022,6 hPa 0,0 l/m 0,0 km/h O-SO -0,6 C 2,1 C 0,0 km/h
18.12.2013 08:00 2,3 C 83 % 1022,1 hPa 0,0 l/m 0,6 km/h O-NO -0,3 C 2,3 C 0,4 km/h
18.12.2013 09:00 2,4 C 84 % 1022,2 hPa 0,0 l/m 0,0 km/h O-NO -0,0 C 2,4 C 0,0 km/h
18.12.2013 10:00 4,1 C 82 % 1022,5 hPa 0,0 l/m 0,0 km/h O-NO 1,3 C 4,1 C 0,0 km/h
18.12.2013 11:00 6,8 C 79 % 1021,8 hPa 0,0 l/m 0,0 km/h SW 3,4 C 6,8 C 0,0 km/h
18.12.2013 12:00 10,7 C 68 % 1020,8 hPa 0,0 l/m 0,0 km/h SW 5,0 C 10,7 C 0,0 km/h
18.12.2013 13:00 12,3 C 63 % 1020,3 hPa 0,0 l/m 0,0 km/h SW 5,5 C 12,3 C 0,0 km/h
18.12.2013 14:00 10,9 C 67 % 1019,4 hPa 0,0 l/m 5,8 km/h S-SW 5,0 C 10,9 C 3,2 km/h
18.12.2013 15:00 10,6 C 68 % 1019,0 hPa 0,0 l/m 1,3 km/h W 4,9 C 10,6 C 0,7 km/h
18.12.2013 16:00 9,3 C 70 % 1018,5 hPa 0,0 l/m 0,0 km/h SO 4,1 C 9,3 C 0,0 km/h
18.12.2013 17:00 7,4 C 76 % 1017,8 hPa 0,0 l/m 0,0 km/h O-NO 3,5 C 7,4 C 0,0 km/h
18.12.2013 18:00 6,1 C 80 % 1017,2 hPa 0,0 l/m 0,0 km/h N 2,9 C 6,1 C 0,0 km/h
18.12.2013 19:00 5,4 C 83 % 1016,7 hPa 0,0 l/m 0,0 km/h O 2,7 C 5,4 C 0,0 km/h
18.12.2013 20:00 3,8 C 85 % 1015,7 hPa 0,0 l/m 0,0 km/h N-NO 1,5 C 3,8 C 0,0 km/h
18.12.2013 21:00 2,4 C 86 % 1014,8 hPa 0,0 l/m 0,0 km/h N 0,3 C 2,4 C 0,0 km/h
18.12.2013 22:00 1,4 C 86 % 1014,2 hPa 0,0 l/m 0,0 km/h NO -0,7 C 1,4 C 0,0 km/h
18.12.2013 23:00 1,8 C 86 % 1013,5 hPa 0,0 l/m 0,0 km/h N-NO -0,3 C 1,8 C 0,0 km/h
19.12.2013 00:00 3,9 C 86 % 1012,0 hPa 0,0 l/m 0,0 km/h N-NO 1,8 C 3,9 C 0,0 km/h
19.12.2013 01:00 3,3 C 86 % 1010,9 hPa 0,0 l/m 0,0 km/h N-NO 1,2 C 3,3 C 0,0 km/h
19.12.2013 02:00 3,5 C 86 % 1009,8 hPa 0,0 l/m 0,0 km/h N-NO 1,4 C 3,5 C 0,0 km/h
19.12.2013 03:00 3,3 C 86 % 1009,3 hPa 0,0 l/m 0,0 km/h O-NO 1,2 C 3,3 C 0,0 km/h
19.12.2013 04:00 3,5 C 86 % 1008,4 hPa 0,0 l/m 0,0 km/h O-NO 1,4 C 3,5 C 0,0 km/h
19.12.2013 05:00 4,4 C 85 % 1007,7 hPa 0,0 l/m 0,0 km/h O-SO 2,1 C 4,4 C 0,0 km/h
19.12.2013 06:00 4,4 C 85 % 1007,9 hPa 0,0 l/m 0,0 km/h O-NO 2,1 C 4,4 C 0,0 km/h
19.12.2013 07:00 4,6 C 85 % 1008,1 hPa 0,0 l/m 0,0 km/h S-SO 2,3 C 4,6 C 0,0 km/h
19.12.2013 08:00 5,4 C 86 % 1009,4 hPa 0,0 l/m 0,0 km/h S-SW 3,3 C 5,4 C 0,0 km/h
19.12.2013 09:00 7,6 C 86 % 1009,8 hPa 1,0 l/m 28,5 km/h S 5,4 C -2,4 C 15,8 km/h
19.12.2013 10:00 7,9 C 86 % 1010,2 hPa 0,5 l/m 0,0 km/h S-SW 5,7 C 7,9 C 0,0 km/h
19.12.2013 11:00 9,1 C 86 % 1009,8 hPa 0,0 l/m 20,1 km/h W 6,9 C 2,1 C 11,2 km/h
19.12.2013 12:00 10,6 C 79 % 1009,5 hPa 0,0 l/m 8,4 km/h SW 7,1 C 9,2 C 4,7 km/h
19.12.2013 13:00 11,2 C 75 % 1009,4 hPa 0,0 l/m 19,4 km/h SW 6,9 C 5,0 C 10,8 km/h
19.12.2013 14:00 11,2 C 72 % 1009,4 hPa 0,0 l/m 25,3 km/h SW 6,3 C 3,4 C 14,0 km/h
19.12.2013 15:00 11,1 C 70 % 1009,3 hPa 0,0 l/m 25,9 km/h SW 5,8 C 3,1 C 14,4 km/h
19.12.2013 16:00 10,5 C 72 % 1009,8 hPa 0,0 l/m 20,7 km/h S 5,7 C 3,7 C 11,5 km/h
19.12.2013 17:00 9,3 C 77 % 1010,2 hPa 0,0 l/m 8,4 km/h S 5,5 C 7,8 C 4,7 km/h
19.12.2013 18:00 8,2 C 82 % 1010,4 hPa 0,0 l/m 0,0 km/h N-NO 5,3 C 8,2 C 0,0 km/h
19.12.2013 19:00 7,4 C 85 % 1010,7 hPa 0,0 l/m 1,9 km/h O-SO 5,0 C 7,4 C 1,1 km/h
19.12.2013 20:00 7,1 C 86 % 1011,0 hPa 0,5 l/m 0,0 km/h NO 4,9 C 7,1 C 0,0 km/h
19.12.2013 21:00 6,2 C 86 % 1012,0 hPa 0,5 l/m 0,0 km/h O-NO 4,0 C 6,2 C 0,0 km/h
19.12.2013 22:00 5,8 C 85 % 1012,3 hPa 0,0 l/m 0,0 km/h SO 3,5 C 5,8 C 0,0 km/h
19.12.2013 23:00 5,8 C 85 % 1012,5 hPa 0,0 l/m 0,0 km/h N-NO 3,5 C 5,8 C 0,0 km/h
20.12.2013 00:00 5,6 C 84 % 1012,7 hPa 0,0 l/m 0,0 km/h N-NO 3,1 C 5,6 C 0,0 km/h
20.12.2013 01:00 5,6 C 84 % 1013,2 hPa 0,0 l/m 0,0 km/h NO 3,1 C 5,6 C 0,0 km/h
20.12.2013 02:00 5,9 C 83 % 1014,1 hPa 0,0 l/m 0,0 km/h NO 3,2 C 5,9 C 0,0 km/h
20.12.2013 03:00 5,9 C 83 % 1014,6 hPa 0,0 l/m 0,0 km/h NO 3,2 C 5,9 C 0,0 km/h
20.12.2013 04:00 5,5 C 83 % 1015,3 hPa 0,0 l/m 0,0 km/h NO 2,8 C 5,5 C 0,0 km/h
20.12.2013 05:00 5,3 C 83 % 1016,2 hPa 0,0 l/m 0,0 km/h NO 2,7 C 5,3 C 0,0 km/h
20.12.2013 06:00 5,4 C 83 % 1017,0 hPa 0,5 l/m 0,0 km/h NO 2,7 C 5,4 C 0,0 km/h
20.12.2013 07:00 5,6 C 82 % 1018,3 hPa 0,5 l/m 0,0 km/h NO 2,8 C 5,6 C 0,0 km/h
20.12.2013 08:00 5,6 C 81 % 1019,7 hPa 0,5 l/m 0,0 km/h S 2,6 C 5,6 C 0,0 km/h
20.12.2013 09:00 6,1 C 80 % 1021,0 hPa 0,5 l/m 0,0 km/h W 2,9 C 6,1 C 0,0 km/h
20.12.2013 10:00 6,4 C 80 % 1023,1 hPa 0,5 l/m 7,1 km/h S-SW 3,2 C 5,8 C 4,0 km/h
20.12.2013 11:00 6,9 C 81 % 1023,8 hPa 0,0 l/m 0,0 km/h S-SW 3,9 C 6,9 C 0,0 km/h
20.12.2013 12:00 10,1 C 85 % 1024,5 hPa 0,0 l/m 2,6 km/h W-SW 7,7 C 10,1 C 1,4 km/h
20.12.2013 13:00 9,6 C 81 % 1025,3 hPa 0,0 l/m 25,9 km/h W-SW 6,5 C 1,1 C 14,4 km/h
20.12.2013 14:00 8,9 C 81 % 1026,0 hPa 0,0 l/m 0,0 km/h SW 5,8 C 8,9 C 0,0 km/h
20.12.2013 15:00 8,1 C 82 % 1027,0 hPa 0,0 l/m 0,0 km/h SW 5,2 C 8,1 C 0,0 km/h
20.12.2013 16:00 7,3 C 82 % 1028,1 hPa 0,0 l/m 0,0 km/h N-NW 4,4 C 7,3 C 0,0 km/h
20.12.2013 17:00 6,4 C 85 % 1028,8 hPa 0,0 l/m 0,0 km/h N 4,1 C 6,4 C 0,0 km/h
20.12.2013 18:00 5,5 C 86 % 1029,7 hPa 0,0 l/m 0,0 km/h O-SO 3,3 C 5,5 C 0,0 km/h
20.12.2013 19:00 5,6 C 86 % 1030,5 hPa 0,0 l/m 0,0 km/h S-SO 3,4 C 5,6 C 0,0 km/h
20.12.2013 20:00 4,1 C 86 % 1030,7 hPa 0,0 l/m 0,0 km/h O-SO 2,0 C 4,1 C 0,0 km/h
20.12.2013 21:00 2,3 C 86 % 1030,7 hPa 0,0 l/m 0,0 km/h O 0,2 C 2,3 C 0,0 km/h
20.12.2013 22:00 2,6 C 86 % 1031,2 hPa 0,0 l/m 0,0 km/h O-NO 0,5 C 2,6 C 0,0 km/h
20.12.2013 23:00 1,3 C 86 % 1031,2 hPa 0,0 l/m 0,0 km/h O -0,8 C 1,3 C 0,0 km/h
21.12.2013 00:00 0,9 C 85 % 1031,0 hPa 0,0 l/m 0,0 km/h O-NO -1,3 C 0,9 C 0,0 km/h
21.12.2013 01:00 -0,4 C 85 % 1031,3 hPa 0,0 l/m 0,0 km/h O -2,6 C -0,4 C 0,0 km/h
21.12.2013 02:00 -0,5 C 85 % 1031,1 hPa 0,0 l/m 0,0 km/h S-SO -2,7 C -0,5 C 0,0 km/h
21.12.2013 03:00 -0,6 C 84 % 1031,2 hPa 0,0 l/m 0,0 km/h SO -3,0 C -0,6 C 0,0 km/h
21.12.2013 04:00 0,6 C 82 % 1031,2 hPa 0,0 l/m 0,0 km/h O-SO -2,1 C 0,6 C 0,0 km/h
21.12.2013 05:00 1,3 C 81 % 1031,5 hPa 0,0 l/m 6,5 km/h O-NO -1,6 C 1,2 C 3,6 km/h
21.12.2013 06:00 0,9 C 80 % 1031,6 hPa 0,0 l/m 0,0 km/h SO -2,2 C 0,9 C 0,0 km/h
21.12.2013 07:00 1,3 C 79 % 1031,1 hPa 0,0 l/m 0,0 km/h S -1,9 C 1,3 C 0,0 km/h
21.12.2013 08:00 1,5 C 78 % 1031,0 hPa 0,0 l/m 2,6 km/h SO -1,9 C 1,5 C 1,4 km/h
21.12.2013 09:00 2,3 C 77 % 1030,6 hPa 0,0 l/m 0,0 km/h SO -1,3 C 2,3 C 0,0 km/h
21.12.2013 10:00 4,6 C 72 % 1030,3 hPa 0,0 l/m 10,4 km/h N -0,0 C 1,3 C 5,8 km/h
21.12.2013 11:00 3,3 C 83 % 1029,9 hPa 0,0 l/m 0,0 km/h SO 0,7 C 3,3 C 0,0 km/h
21.12.2013 12:00 4,4 C 85 % 1028,7 hPa 0,0 l/m 0,0 km/h S-SW 2,1 C 4,4 C 0,0 km/h
21.12.2013 13:00 6,3 C 86 % 1027,7 hPa 0,0 l/m 0,0 km/h SO 4,1 C 6,3 C 0,0 km/h
21.12.2013 14:00 6,6 C 83 % 1027,0 hPa 0,0 l/m 0,0 km/h O-SO 3,9 C 6,6 C 0,0 km/h
21.12.2013 15:00 9,6 C 80 % 1026,0 hPa 0,0 l/m 0,0 km/h N 6,3 C 9,6 C 0,0 km/h
21.12.2013 16:00 6,4 C 83 % 1025,7 hPa 0,0 l/m 0,0 km/h O-SO 3,7 C 6,4 C 0,0 km/h
21.12.2013 17:00 5,1 C 86 % 1025,6 hPa 0,0 l/m 0,0 km/h W-SW 3,0 C 5,1 C 0,0 km/h
21.12.2013 18:00 4,9 C 86 % 1025,5 hPa 0,0 l/m 0,0 km/h SO 2,8 C 4,9 C 0,0 km/h
21.12.2013 19:00 4,3 C 86 % 1025,1 hPa 0,0 l/m 0,0 km/h W 2,2 C 4,3 C 0,0 km/h
21.12.2013 20:00 4,6 C 85 % 1025,1 hPa 0,0 l/m 0,0 km/h O-SO 2,3 C 4,6 C 0,0 km/h
21.12.2013 21:00 5,9 C 84 % 1024,6 hPa 0,0 l/m 0,0 km/h S-SW 3,4 C 5,9 C 0,0 km/h
21.12.2013 22:00 10,3 C 83 % 1024,5 hPa 0,0 l/m 40,8 km/h W-NW 7,5 C -0,8 C 22,7 km/h
21.12.2013 23:00 9,6 C 80 % 1024,3 hPa 0,0 l/m 0,6 km/h SW 6,3 C 9,6 C 0,4 km/h
22.12.2013 00:00 10,3 C 75 % 1023,7 hPa 0,0 l/m 7,1 km/h SW 6,1 C 9,8 C 4,0 km/h
22.12.2013 01:00 10,2 C 75 % 1023,2 hPa 0,0 l/m 0,0 km/h N-NO 6,0 C 10,2 C 0,0 km/h
22.12.2013 02:00 9,5 C 76 % 1022,9 hPa 0,0 l/m 0,0 km/h O-SO 5,5 C 9,5 C 0,0 km/h
22.12.2013 03:00 8,6 C 79 % 1022,6 hPa 0,0 l/m 0,0 km/h N-NO 5,2 C 8,6 C 0,0 km/h
22.12.2013 04:00 8,1 C 82 % 1022,6 hPa 0,0 l/m 0,0 km/h S 5,2 C 8,1 C 0,0 km/h
22.12.2013 05:00 10,3 C 75 % 1022,3 hPa 0,0 l/m 7,8 km/h S 6,1 C 9,3 C 4,3 km/h
22.12.2013 06:00 10,4 C 74 % 1022,2 hPa 0,0 l/m 9,7 km/h S 6,0 C 8,2 C 5,4 km/h
22.12.2013 07:00 11,5 C 70 % 1022,0 hPa 0,0 l/m 20,7 km/h SW 6,2 C 5,0 C 11,5 km/h
22.12.2013 08:00 11,5 C 71 % 1021,8 hPa 0,0 l/m 22,7 km/h SW 6,4 C 4,5 C 12,6 km/h
22.12.2013 09:00 11,6 C 71 % 1021,8 hPa 0,0 l/m 21,4 km/h S-SW 6,5 C 4,9 C 11,9 km/h
22.12.2013 10:00 12,3 C 69 % 1021,8 hPa 0,0 l/m 19,4 km/h W-SW 6,8 C 6,4 C 10,8 km/h
22.12.2013 11:00 13,7 C 63 % 1021,7 hPa 0,0 l/m 29,2 km/h S-SW 6,8 C 6,0 C 16,2 km/h
22.12.2013 12:00 12,9 C 67 % 1021,0 hPa 0,0 l/m 22,0 km/h S-SW 6,9 C 6,5 C 12,2 km/h
22.12.2013 13:00 13,8 C 66 % 1020,2 hPa 0,0 l/m 17,5 km/h W 7,6 C 8,9 C 9,7 km/h
22.12.2013 14:00 12,1 C 71 % 1020,2 hPa 0,0 l/m 24,0 km/h S-SW 7,0 C 4,9 C 13,3 km/h
22.12.2013 15:00 9,9 C 83 % 1020,7 hPa 0,0 l/m 23,3 km/h W-SW 7,2 C 2,2 C 13,0 km/h
22.12.2013 16:00 9,9 C 83 % 1020,8 hPa 0,5 l/m 20,1 km/h SW 7,2 C 3,1 C 11,2 km/h
22.12.2013 17:00 10,3 C 82 % 1021,1 hPa 0,0 l/m 27,9 km/h S-SW 7,4 C 1,5 C 15,5 km/h
22.12.2013 18:00 9,8 C 79 % 1021,0 hPa 0,0 l/m 13,6 km/h SW 6,3 C 5,5 C 7,6 km/h
22.12.2013 19:00 10,3 C 77 % 1020,5 hPa 0,0 l/m 7,8 km/h SW 6,4 C 9,3 C 4,3 km/h
22.12.2013 20:00 10,6 C 75 % 1020,7 hPa 0,0 l/m 27,9 km/h SW 6,4 C 2,0 C 15,5 km/h
22.12.2013 21:00 10,4 C 74 % 1020,5 hPa 0,0 l/m 19,4 km/h W-SW 6,0 C 4,0 C 10,8 km/h
22.12.2013 22:00 10,4 C 72 % 1019,9 hPa 0,0 l/m 23,3 km/h W 5,6 C 2,8 C 13,0 km/h
22.12.2013 23:00 11,5 C 67 % 1020,0 hPa 0,0 l/m 36,3 km/h SW 5,6 C 1,7 C 20,2 km/h
Min-Datum _ 16.12.13 17.12.13 19.12.13 - 16.12.13 - 16.12.13 16.12.13 16.12.13
_ Min-Zeit 05:19 14:19 05:19 - 00:19 - 05:19 05:19 00:19
Minimum _ -3,4 C 40 % 1007,7 hPa - 0,0 km/h - -5,7 C -3,4 C 0,0 km/h
Max-Datum _ 17.12.13 17.12.13 21.12.13 19.12.13 21.12.13 - 20.12.13 17.12.13 21.12.13
_ Max-Zeit 14:19 02:19 06:19 09:19 22:19 - 12:19 15:19 22:19
Maximum _ 16,5 C 87 % 1031,6 hPa 1,0 l/m 40,8 km/h
W-NW
- 7,7 C 15,9 C 22,7 km/h
W-NW
Durchschnitt _ 5,5 C 79 % 1022,1 hPa #6,2 l/m 4,1 km/h NO 2,1 C 4,3 C 2,3 km/h
www.sexauwetter.de